createdAt,value
2018-12-11T00:00:23.570Z,72.00
2018-12-11T00:02:58.047Z,71.20
2018-12-11T00:05:32.306Z,72.20
2018-12-11T00:08:04.181Z,72.00
2018-12-11T00:10:39.301Z,72.00
2018-12-11T00:13:14.523Z,73.00
2018-12-11T00:15:47.720Z,72.60
2018-12-11T00:18:21.874Z,72.80
2018-12-11T00:20:55.796Z,72.00
2018-12-11T00:23:29.918Z,73.40
2018-12-11T00:26:04.294Z,75.00
2018-12-11T00:39:18.130Z,72.00
2018-12-11T00:41:52.199Z,72.40
2018-12-11T00:47:12.447Z,73.40
2018-12-11T00:49:48.188Z,72.00
2018-12-11T00:52:24.796Z,72.00
2018-12-11T00:55:04.732Z,72.00
2018-12-11T00:57:41.068Z,72.40
2018-12-11T01:00:15.915Z,73.80
2018-12-11T01:02:52.379Z,72.00
2018-12-11T01:05:32.022Z,73.00
2018-12-11T01:08:06.420Z,73.00
2018-12-11T01:10:40.568Z,72.20
2018-12-11T01:13:15.408Z,70.80
2018-12-11T01:15:52.261Z,72.20
2018-12-11T01:18:25.332Z,72.00
2018-12-11T01:21:00.707Z,70.40
2018-12-11T01:23:36.512Z,71.20
2018-12-11T01:26:08.350Z,69.60
2018-12-11T01:28:43.680Z,70.80
2018-12-11T01:42:33.018Z,69.20
2018-12-11T01:45:08.837Z,71.60
2018-12-11T01:47:44.387Z,72.00
2018-12-11T01:50:19.133Z,71.60
2018-12-11T01:55:39.578Z,71.20
2018-12-11T01:58:14.463Z,71.20
2018-12-11T02:00:46.733Z,72.00
2018-12-11T02:03:21.812Z,72.60
2018-12-11T02:05:58.823Z,70.40
2018-12-11T02:08:34.786Z,74.60
2018-12-11T02:14:00.339Z,72.00
2018-12-11T02:19:21.259Z,70.80
2018-12-11T02:54:37.793Z,70.00
2018-12-11T02:57:13.040Z,69.40
2018-12-11T02:59:44.893Z,70.00
2018-12-11T03:02:18.837Z,72.00
2018-12-11T03:04:52.813Z,69.40
2018-12-11T03:07:24.737Z,69.00
2018-12-11T03:09:58.590Z,69.20
2018-12-11T03:12:36.643Z,69.00
2018-12-11T03:15:18.704Z,72.00
2018-12-11T03:20:52.858Z,70.00
2018-12-11T03:26:11.684Z,72.00
2018-12-11T03:28:46.756Z,70.40
2018-12-11T03:31:18.982Z,70.40
2018-12-11T03:36:44.609Z,69.80
2018-12-11T03:39:16.250Z,70.00
2018-12-11T03:41:50.806Z,69.20
2018-12-11T03:44:25.948Z,72.00
2018-12-11T03:47:01.693Z,69.20
2018-12-11T03:49:37.129Z,70.00
2018-12-11T03:52:13.514Z,70.00
2018-12-11T03:54:48.460Z,69.00
2018-12-11T03:57:27.520Z,70.40
2018-12-11T04:00:06.595Z,72.00
2018-12-11T04:02:44.217Z,70.00
2018-12-11T04:05:19.618Z,72.00
2018-12-11T04:07:54.810Z,72.00
2018-12-11T04:10:30.109Z,71.60
2018-12-11T04:13:05.893Z,69.60
2018-12-11T04:15:43.761Z,69.00
2018-12-11T04:18:23.292Z,72.00
2018-12-11T04:20:57.361Z,70.00
2018-12-11T04:23:31.427Z,70.40
2018-12-11T04:26:06.973Z,69.60
2018-12-11T04:28:41.392Z,69.60
2018-12-11T04:31:15.270Z,70.40
2018-12-11T04:33:51.072Z,70.80
2018-12-11T04:36:27.291Z,70.00
2018-12-11T04:39:07.246Z,70.20
2018-12-11T04:41:57.278Z,69.40
2018-12-11T04:44:44.927Z,70.40
2018-12-11T04:56:03.361Z,71.60
2018-12-11T04:58:37.620Z,73.00
2018-12-11T05:01:11.974Z,72.00
2018-12-11T05:03:40.477Z,70.00
2018-12-11T05:06:10.966Z,70.20
2018-12-11T05:11:36.859Z,72.00
2018-12-11T05:14:05.959Z,70.00
2018-12-11T05:16:36.401Z,71.60
2018-12-11T05:19:04.835Z,71.20
2018-12-11T05:21:33.215Z,70.80
2018-12-11T05:24:02.579Z,71.80
2018-12-11T05:26:32.023Z,71.20
2018-12-11T05:29:04.188Z,73.00
2018-12-11T05:31:36.291Z,72.40
2018-12-11T05:34:04.748Z,71.20
2018-12-11T05:36:34.551Z,72.00
2018-12-11T05:39:03.357Z,70.80
2018-12-11T05:41:31.737Z,72.00
2018-12-11T05:44:00.095Z,71.20
2018-12-11T05:46:28.416Z,70.00
2018-12-11T05:48:56.827Z,70.00
2018-12-11T05:51:31.548Z,71.20
2018-12-11T05:54:05.424Z,72.00
2018-12-11T05:56:35.777Z,70.80
2018-12-11T05:59:04.598Z,69.40
2018-12-11T06:01:33.026Z,71.20
2018-12-11T06:04:01.395Z,70.00
2018-12-11T06:06:29.936Z,70.80
2018-12-11T06:09:07.358Z,70.00
2018-12-11T06:11:40.507Z,71.20
2018-12-11T06:14:19.165Z,70.80
2018-12-11T06:16:47.610Z,69.40
2018-12-11T06:19:17.227Z,69.20
2018-12-11T06:21:45.568Z,69.40
2018-12-11T06:24:13.891Z,69.60
2018-12-11T06:26:42.242Z,70.80
2018-12-11T06:29:10.560Z,69.40
2018-12-11T06:31:40.359Z,70.40
2018-12-11T06:34:16.209Z,70.40
2018-12-11T06:39:47.427Z,69.80
2018-12-11T06:42:24.376Z,70.80
2018-12-11T06:44:53.414Z,73.80
2018-12-11T06:47:22.429Z,70.40
2018-12-11T06:49:50.944Z,70.40
2018-12-11T06:52:26.425Z,72.00
2018-12-11T06:54:54.881Z,65.60
2018-12-11T06:57:23.788Z,69.20
2018-12-11T06:59:52.582Z,66.00
2018-12-11T07:02:21.797Z,71.20
2018-12-11T07:04:50.308Z,70.00
2018-12-11T07:07:19.552Z,70.20
2018-12-11T07:09:47.986Z,71.60
2018-12-11T07:12:16.411Z,72.00
2018-12-11T07:14:48.803Z,74.20
2018-12-11T07:17:17.801Z,70.40
2018-12-11T07:19:46.176Z,70.00
2018-12-11T07:22:14.580Z,70.40
2018-12-11T07:24:49.016Z,70.80
2018-12-11T07:27:18.827Z,70.00
2018-12-11T07:29:49.029Z,70.00
2018-12-11T07:32:31.620Z,73.00
2018-12-11T07:35:04.477Z,69.20
2018-12-11T07:37:35.142Z,67.80
2018-12-11T07:40:04.796Z,69.00
2018-12-11T07:42:35.027Z,69.00
2018-12-11T07:45:07.044Z,71.20
2018-12-11T07:47:41.260Z,69.00
2018-12-11T07:50:10.168Z,73.00
2018-12-11T07:52:39.630Z,72.00
2018-12-11T07:55:15.226Z,69.80
2018-12-11T07:57:49.765Z,70.40
2018-12-11T08:00:18.552Z,72.00
2018-12-11T08:02:48.980Z,70.00
2018-12-11T08:05:20.440Z,72.00
2018-12-11T08:07:56.482Z,72.00
2018-12-11T08:13:24.147Z,72.00
2018-12-11T08:15:55.538Z,70.00
2018-12-11T08:18:32.780Z,76.80
2018-12-11T08:21:03.023Z,72.00
2018-12-11T08:23:45.941Z,75.00
2018-12-11T08:26:26.410Z,69.60
2018-12-11T08:28:56.487Z,69.00
2018-12-11T08:34:37.880Z,75.20
2018-12-11T08:37:13.101Z,69.80
2018-12-11T08:39:57.931Z,70.80
2018-12-11T08:42:39.216Z,71.00
2018-12-11T08:47:09.937Z,86.00
2018-12-11T08:49:40.342Z,75.80
2018-12-11T08:52:10.728Z,72.00
2018-12-11T08:54:49.903Z,70.80
2018-12-11T08:57:22.203Z,71.20
2018-12-11T08:59:51.566Z,71.60
2018-12-11T09:02:20.241Z,72.00
2018-12-11T09:04:51.283Z,74.60
2018-12-11T09:07:22.203Z,74.80
2018-12-11T09:09:52.267Z,72.40
2018-12-11T09:12:25.361Z,73.40
2018-12-11T09:15:01.766Z,74.20
2018-12-11T09:17:30.697Z,73.00
2018-12-11T09:20:01.367Z,74.60
2018-12-11T09:33:21.207Z,85.00
2018-12-11T09:35:59.496Z,81.80
2018-12-11T09:38:35.683Z,82.80
2018-12-11T09:41:11.269Z,83.60
2018-12-11T09:43:45.654Z,82.00
2018-12-11T09:51:58.468Z,84.80
2018-12-11T10:00:27.806Z,80.40
2018-12-11T10:03:08.293Z,80.40
2018-12-11T10:05:56.670Z,81.60
2018-12-11T10:14:28.429Z,86.00
2018-12-11T10:31:32.509Z,114.00
2018-12-11T10:34:09.518Z,93.80
2018-12-11T10:39:42.618Z,90.00
2018-12-11T10:45:23.262Z,117.40
2018-12-11T12:18:47.254Z,85.00
2018-12-11T12:24:14.668Z,66.00
2018-12-11T12:35:35.289Z,85.80
2018-12-11T12:38:16.292Z,88.80
2018-12-11T12:52:50.062Z,83.20
2018-12-11T13:43:33.204Z,84.00
2018-12-11T15:05:12.764Z,82.40
2018-12-11T15:07:57.564Z,79.00
2018-12-11T15:24:47.257Z,79.00
2018-12-11T15:38:47.033Z,78.60
2018-12-11T15:41:34.467Z,82.40
2018-12-11T16:09:41.464Z,79.00
2018-12-11T16:12:32.062Z,78.80
2018-12-11T16:15:11.708Z,78.20
2018-12-11T16:33:21.581Z,78.00
2018-12-11T17:39:21.793Z,85.80
2018-12-11T17:42:39.955Z,79.80
2018-12-11T17:45:30.124Z,80.40
2018-12-11T17:51:01.912Z,80.00
2018-12-11T17:56:31.084Z,79.00
2018-12-11T18:11:03.209Z,79.00
2018-12-11T18:28:06.781Z,78.00
2018-12-11T20:55:42.677Z,73.00
2018-12-11T21:18:15.297Z,73.80
2018-12-11T21:20:52.754Z,72.00
2018-12-11T21:23:31.325Z,72.00
2018-12-11T21:26:07.833Z,72.00
2018-12-11T21:28:42.221Z,72.00
2018-12-11T21:31:16.608Z,72.00
2018-12-11T21:33:48.575Z,72.00
2018-12-11T21:36:23.656Z,72.00
2018-12-11T21:38:57.623Z,71.60
2018-12-11T21:41:33.227Z,72.40
2018-12-11T21:44:08.282Z,72.00
2018-12-11T21:46:44.640Z,69.60
2018-12-11T21:49:19.243Z,72.00
2018-12-11T21:51:53.907Z,70.80
2018-12-11T21:54:28.659Z,71.20
2018-12-11T21:57:02.024Z,70.00
2018-12-11T21:59:34.471Z,72.40
2018-12-11T22:02:10.627Z,73.00
2018-12-11T22:04:46.708Z,72.20
2018-12-11T22:07:23.189Z,72.40
2018-12-11T22:09:57.775Z,72.60
2018-12-11T22:12:33.695Z,70.40
2018-12-11T22:15:08.465Z,71.20
2018-12-11T22:17:44.449Z,70.00
2018-12-11T22:20:18.780Z,70.80
2018-12-11T22:22:53.021Z,71.60
2018-12-11T22:25:27.581Z,71.20
2018-12-11T22:28:01.870Z,69.80
2018-12-11T22:30:38.097Z,69.80
2018-12-11T22:33:12.124Z,69.00
2018-12-11T22:35:46.452Z,70.40
2018-12-11T22:38:21.265Z,70.40
2018-12-11T22:41:50.070Z,82.40
2018-12-11T22:44:25.238Z,76.00
2018-12-11T22:47:00.192Z,71.20
2018-12-11T22:49:37.798Z,70.80
2018-12-11T22:52:12.697Z,69.80
2018-12-11T22:54:46.825Z,69.00
2018-12-11T22:57:21.255Z,69.00
2018-12-11T22:59:56.053Z,70.00
2018-12-11T23:02:27.801Z,69.00
2018-12-11T23:04:58.335Z,68.20
2018-12-11T23:07:32.138Z,67.00
2018-12-11T23:10:07.270Z,69.20
2018-12-11T23:12:39.021Z,69.00
2018-12-11T23:15:09.412Z,72.60
2018-12-11T23:17:43.826Z,69.00
2018-12-11T23:20:21.963Z,67.00
2018-12-11T23:22:56.347Z,68.20
2018-12-11T23:28:29.288Z,66.40
2018-12-11T23:31:09.242Z,66.00
2018-12-11T23:33:43.838Z,67.00
2018-12-11T23:36:19.807Z,66.80
2018-12-11T23:38:58.627Z,66.40
2018-12-11T23:41:32.954Z,67.00
2018-12-11T23:44:09.384Z,67.00
2018-12-11T23:46:44.093Z,68.60
2018-12-11T23:49:21.379Z,66.60
2018-12-11T23:51:53.724Z,66.60
2018-12-11T23:54:28.943Z,68.60
2018-12-11T23:57:03.953Z,67.00
2018-12-11T23:59:43.174Z,66.40
